Texas City, Illinois
Current Conditions -  °F | °C
As of 2:55 AM on Friday 24 Oct 2014 (Local Time) from KHSB Reporting Station
Overcast Overcast  
Wind Chill: 44°   Ceiling: 5500
Heat Index: 44°   Visibility: 7mi
Dew Point: 44°   Wind: 0mph
Humidity: 100%   Direction: NA
Pressure: 30.13"   Gusts: NA
Location:  37.8101°N, 88.4411°W
Report Text: KHSB 240755Z AUTO 00000KT 7SM SCT045 BKN055 OVC100 07/07 A3013 RMK AO2 T00650065
Loading
Personal Weather Stations






























Interactive Weather Map
Tropical Storm Tracking
New forecast layout! Learn more

10-Day Weather Forecast

Advertisements
Track Severe Weather on mobile